createdAt,value
2022-11-22T00:01:10.702Z,15.10
2022-11-22T00:03:38.053Z,15.10
2022-11-22T00:06:05.256Z,15.20
2022-11-22T00:08:33.551Z,15.20
2022-11-22T00:11:00.873Z,15.30
2022-11-22T00:13:28.017Z,15.40
2022-11-22T00:16:05.472Z,15.50
2022-11-22T00:18:33.170Z,15.60
2022-11-22T00:21:06.532Z,15.70
2022-11-22T00:23:33.957Z,15.80
2022-11-22T00:42:25.901Z,15.90
2022-11-22T00:44:53.110Z,15.80
2022-11-22T00:47:21.604Z,15.80
2022-11-22T00:49:48.645Z,15.80
2022-11-22T00:52:15.996Z,15.80
2022-11-22T00:54:54.258Z,15.80
2022-11-22T00:57:22.190Z,15.70
2022-11-22T00:59:49.342Z,15.70
2022-11-22T01:02:17.758Z,15.70
2022-11-22T01:04:44.900Z,15.70
2022-11-22T01:07:15.010Z,15.80
2022-11-22T01:09:42.093Z,15.70
2022-11-22T01:12:09.308Z,15.80
2022-11-22T01:14:36.388Z,15.80
2022-11-22T01:17:03.649Z,15.80
2022-11-22T01:19:31.024Z,15.80
2022-11-22T01:21:58.347Z,15.90
2022-11-22T01:24:25.554Z,15.90
2022-11-22T01:26:52.745Z,16.00
2022-11-22T01:29:19.737Z,16.00
2022-11-22T01:31:46.933Z,16.00
2022-11-22T01:34:14.016Z,16.10
2022-11-22T01:36:41.085Z,16.10
2022-11-22T01:47:19.594Z,16.00
2022-11-22T01:49:51.060Z,15.90
2022-11-22T01:52:21.802Z,15.90
2022-11-22T01:55:05.269Z,15.80
2022-11-22T01:57:40.696Z,15.50
2022-11-22T02:00:11.026Z,15.20
2022-11-22T02:02:53.537Z,15.00
2022-11-22T02:05:26.064Z,14.90
2022-11-22T02:08:18.030Z,14.80
2022-11-22T02:10:49.389Z,14.80
2022-11-22T02:13:19.386Z,14.80
2022-11-22T02:15:46.437Z,14.90
2022-11-22T02:18:14.160Z,14.90
2022-11-22T02:20:41.964Z,15.00
2022-11-22T02:23:23.236Z,15.10
2022-11-22T02:25:58.275Z,15.30
2022-11-22T02:28:26.734Z,15.40
2022-11-22T02:30:53.771Z,15.40
2022-11-22T02:49:23.169Z,15.60
2022-11-22T02:51:51.565Z,15.50
2022-11-22T02:54:19.378Z,15.60
2022-11-22T02:56:47.141Z,15.70
2022-11-22T02:59:14.589Z,15.70
2022-11-22T03:01:43.496Z,15.80
2022-11-22T03:04:24.828Z,15.80
2022-11-22T03:06:57.379Z,15.90
2022-11-22T03:09:25.706Z,15.90
2022-11-22T03:11:54.080Z,15.90
2022-11-22T03:14:24.745Z,15.90
2022-11-22T03:16:51.928Z,15.90
2022-11-22T03:19:19.158Z,15.80
2022-11-22T03:21:46.452Z,15.80
2022-11-22T03:24:14.584Z,15.80
2022-11-22T03:26:46.081Z,15.80
2022-11-22T03:29:13.311Z,15.70
2022-11-22T03:31:40.470Z,15.70
2022-11-22T03:34:07.537Z,15.70
2022-11-22T03:36:34.627Z,15.70
2022-11-22T03:39:01.772Z,15.70
2022-11-22T03:41:28.833Z,15.70
2022-11-22T03:43:55.842Z,15.70
2022-11-22T03:46:22.885Z,15.70
2022-11-22T03:48:50.252Z,15.70
2022-11-22T03:51:17.366Z,15.60
2022-11-22T03:53:44.482Z,15.60
2022-11-22T03:56:11.635Z,15.70
2022-11-22T03:58:38.762Z,15.70
2022-11-22T04:01:05.943Z,15.70
2022-11-22T04:03:33.223Z,15.70
2022-11-22T04:06:00.314Z,15.80
2022-11-22T04:08:27.357Z,15.80
2022-11-22T04:10:55.738Z,15.90
2022-11-22T04:13:42.763Z,15.90
2022-11-22T04:16:10.674Z,15.90
2022-11-22T04:18:37.747Z,15.90
2022-11-22T04:21:23.346Z,15.90
2022-11-22T04:24:10.385Z,15.80
2022-11-22T04:26:37.509Z,15.80
2022-11-22T04:29:11.816Z,15.80
2022-11-22T04:31:57.501Z,15.80
2022-11-22T04:34:24.679Z,15.70
2022-11-22T04:36:51.864Z,15.70
2022-11-22T04:39:18.977Z,15.70
2022-11-22T04:41:46.776Z,15.70
2022-11-22T04:44:32.114Z,15.70
2022-11-22T04:46:59.337Z,15.70
2022-11-22T04:49:26.579Z,15.70
2022-11-22T04:52:12.143Z,15.70
2022-11-22T04:54:39.293Z,15.60
2022-11-22T04:57:06.338Z,15.60
2022-11-22T04:59:33.547Z,15.60
2022-11-22T05:02:00.660Z,15.60
2022-11-22T05:04:27.803Z,15.60
2022-11-22T05:06:56.882Z,15.60
2022-11-22T05:09:24.253Z,15.60
2022-11-22T05:11:53.784Z,15.60
2022-11-22T05:14:20.898Z,15.70
2022-11-22T05:16:48.011Z,15.70
2022-11-22T05:19:15.122Z,15.70
2022-11-22T05:21:42.178Z,15.60
2022-11-22T05:24:09.606Z,15.60
2022-11-22T05:26:37.732Z,15.60
2022-11-22T05:29:07.368Z,15.60
2022-11-22T05:31:36.224Z,15.60
2022-11-22T05:34:04.096Z,15.70
2022-11-22T05:36:34.906Z,15.70
2022-11-22T05:39:02.632Z,15.80
2022-11-22T05:41:29.796Z,15.80
2022-11-22T05:43:57.533Z,15.90
2022-11-22T05:46:27.151Z,15.90
2022-11-22T05:48:56.296Z,15.80
2022-11-22T05:51:32.189Z,15.80
2022-11-22T05:54:01.730Z,15.90
2022-11-22T05:56:28.857Z,15.80
2022-11-22T05:58:56.135Z,15.80
2022-11-22T06:01:25.951Z,15.80
2022-11-22T06:03:54.492Z,15.90
2022-11-22T06:06:22.095Z,15.80
2022-11-22T06:08:49.519Z,15.80
2022-11-22T06:11:19.920Z,15.80
2022-11-22T06:13:48.729Z,15.80
2022-11-22T06:16:16.674Z,15.90
2022-11-22T06:18:44.289Z,16.00
2022-11-22T06:21:14.429Z,16.10
2022-11-22T06:23:41.842Z,16.10
2022-11-22T06:26:11.442Z,16.10
2022-11-22T06:28:40.232Z,16.10
2022-11-22T06:31:11.674Z,16.10
2022-11-22T06:33:39.683Z,16.10
2022-11-22T06:36:14.606Z,16.20
2022-11-22T06:38:44.791Z,16.30
2022-11-22T06:41:17.459Z,16.30
2022-11-22T06:43:49.339Z,16.40
2022-11-22T06:46:20.289Z,16.50
2022-11-22T06:48:48.150Z,16.50
2022-11-22T06:51:23.761Z,16.60
2022-11-22T06:53:52.113Z,16.70
2022-11-22T06:56:28.643Z,16.70
2022-11-22T06:58:56.298Z,16.80
2022-11-22T07:01:28.954Z,16.80
2022-11-22T07:03:58.797Z,17.00
2022-11-22T07:06:34.584Z,17.00
2022-11-22T07:09:03.906Z,17.00
2022-11-22T07:11:32.196Z,17.00
2022-11-22T07:14:07.164Z,17.10
2022-11-22T07:16:36.336Z,17.30
2022-11-22T07:19:05.499Z,17.40
2022-11-22T07:21:32.991Z,17.60
2022-11-22T07:24:00.105Z,17.70
2022-11-22T07:26:28.756Z,17.80
2022-11-22T07:28:57.756Z,17.90
2022-11-22T07:31:26.176Z,17.90
2022-11-22T07:33:53.244Z,17.80
2022-11-22T07:36:22.113Z,17.80
2022-11-22T07:38:50.099Z,17.80
2022-11-22T07:41:18.561Z,17.90
2022-11-22T07:43:47.386Z,17.90
2022-11-22T07:46:22.782Z,18.00
2022-11-22T07:48:50.173Z,18.00
2022-11-22T07:51:17.859Z,17.90
2022-11-22T07:53:45.026Z,17.90
2022-11-22T07:56:12.684Z,17.80
2022-11-22T07:58:40.244Z,17.70
2022-11-22T08:01:10.024Z,17.70
2022-11-22T08:03:38.028Z,17.80
2022-11-22T08:06:07.898Z,17.90
2022-11-22T08:08:35.625Z,18.00
2022-11-22T08:11:03.272Z,18.20
2022-11-22T08:13:31.386Z,18.20
2022-11-22T08:16:06.580Z,18.10
2022-11-22T08:18:35.254Z,18.10
2022-11-22T08:21:06.586Z,18.00
2022-11-22T08:23:34.157Z,17.90
2022-11-22T08:26:01.692Z,17.90
2022-11-22T08:28:29.173Z,17.90
2022-11-22T08:31:10.697Z,17.90
2022-11-22T08:33:38.044Z,17.80
2022-11-22T08:36:05.564Z,17.90
2022-11-22T08:38:32.912Z,17.90
2022-11-22T08:40:59.976Z,17.90
2022-11-22T08:43:27.079Z,17.90
2022-11-22T08:45:59.368Z,17.90
2022-11-22T08:48:27.721Z,18.10
2022-11-22T08:51:00.259Z,18.20
2022-11-22T08:53:29.899Z,18.30
2022-11-22T08:55:59.750Z,18.50
2022-11-22T08:58:27.484Z,18.70
2022-11-22T09:00:54.614Z,18.90
2022-11-22T09:03:21.712Z,19.00
2022-11-22T09:08:40.473Z,19.30
2022-11-22T09:11:16.489Z,19.60
2022-11-22T09:13:43.858Z,19.80
2022-11-22T09:16:14.249Z,20.00
2022-11-22T09:18:42.215Z,20.20
2022-11-22T09:21:11.488Z,20.30
2022-11-22T09:23:38.477Z,20.30
2022-11-22T09:26:08.545Z,20.20
2022-11-22T09:28:36.690Z,20.10
2022-11-22T09:31:15.822Z,20.20
2022-11-22T09:33:45.301Z,20.30
2022-11-22T09:36:14.848Z,20.20
2022-11-22T09:38:42.288Z,19.90
2022-11-22T09:41:40.296Z,19.70
2022-11-22T09:44:14.520Z,19.50
2022-11-22T09:46:52.640Z,19.60
2022-11-22T09:49:38.377Z,19.60
2022-11-22T09:52:15.281Z,19.70
2022-11-22T09:55:06.943Z,20.00
2022-11-22T09:57:44.297Z,20.30
2022-11-22T10:00:26.163Z,20.50
2022-11-22T10:03:08.874Z,20.60
2022-11-22T10:05:52.008Z,20.50
2022-11-22T10:08:36.475Z,20.30
2022-11-22T10:11:24.421Z,20.10
2022-11-22T10:13:56.839Z,20.10
2022-11-22T10:16:44.239Z,20.00
2022-11-22T10:19:20.977Z,20.00
2022-11-22T10:21:48.365Z,20.30
2022-11-22T10:24:17.415Z,20.30
2022-11-22T10:26:45.119Z,20.10
2022-11-22T10:29:24.009Z,19.90
2022-11-22T10:32:00.191Z,19.90
2022-11-22T10:34:39.355Z,19.80
2022-11-22T10:37:06.752Z,19.80
2022-11-22T10:39:56.428Z,19.50
2022-11-22T10:42:32.201Z,18.90
2022-11-22T10:45:15.343Z,18.70
2022-11-22T10:47:54.343Z,18.80
2022-11-22T10:50:46.068Z,19.00
2022-11-22T10:53:40.442Z,19.10
2022-11-22T10:56:16.298Z,19.30
2022-11-22T10:59:14.218Z,19.50
2022-11-22T11:02:10.189Z,19.70
2022-11-22T11:04:40.868Z,19.40
2022-11-22T11:07:15.258Z,19.40
2022-11-22T11:12:52.521Z,19.90
2022-11-22T11:15:27.699Z,19.60
2022-11-22T11:18:01.088Z,19.20
2022-11-22T11:20:31.890Z,19.10
2022-11-22T11:23:14.324Z,19.20
2022-11-22T11:25:44.945Z,19.60
2022-11-22T11:28:24.028Z,20.00
2022-11-22T11:31:10.214Z,19.80
2022-11-22T11:33:40.114Z,19.60
2022-11-22T11:36:11.024Z,19.10
2022-11-22T11:38:43.598Z,18.90
2022-11-22T11:41:18.695Z,18.90
2022-11-22T11:43:46.855Z,18.80
2022-11-22T11:46:23.820Z,18.70
2022-11-22T11:49:15.270Z,18.60
2022-11-22T11:51:46.612Z,18.50
2022-11-22T11:54:22.817Z,18.80
2022-11-22T11:56:52.779Z,19.10
2022-11-22T11:59:40.282Z,19.70
2022-11-22T12:02:13.725Z,20.00
2022-11-22T12:05:01.120Z,20.10
2022-11-22T12:07:34.472Z,19.30
2022-11-22T12:10:04.010Z,19.00
2022-11-22T12:12:43.943Z,18.60
2022-11-22T12:15:56.372Z,18.50
2022-11-22T12:18:51.287Z,18.30
2022-11-22T12:21:26.137Z,18.10
2022-11-22T12:24:41.436Z,18.10
2022-11-22T12:27:00.704Z,17.90
2022-11-22T12:29:28.161Z,17.80
2022-11-22T12:32:05.364Z,17.70
2022-11-22T12:34:43.042Z,17.60
2022-11-22T12:37:19.154Z,17.40
2022-11-22T12:39:50.773Z,17.30
2022-11-22T12:42:34.181Z,17.20
2022-11-22T12:45:30.257Z,17.30
2022-11-22T12:48:05.750Z,17.30
2022-11-22T12:50:55.428Z,17.30
2022-11-22T12:53:37.027Z,17.30
2022-11-22T12:56:10.886Z,17.20
2022-11-22T12:59:02.432Z,17.20
2022-11-22T13:01:37.885Z,17.10
2022-11-22T13:04:11.321Z,17.20
2022-11-22T13:06:56.767Z,17.20
2022-11-22T13:09:35.199Z,17.20
2022-11-22T13:12:22.792Z,17.20
2022-11-22T13:14:55.538Z,17.10
2022-11-22T13:17:36.455Z,17.00
2022-11-22T13:20:06.875Z,17.00
2022-11-22T13:23:18.213Z,17.10
2022-11-22T13:26:08.018Z,17.10
2022-11-22T13:28:40.285Z,17.00
2022-11-22T13:31:13.444Z,17.00
2022-11-22T13:34:11.595Z,17.00
2022-11-22T13:36:39.473Z,17.00
2022-11-22T13:39:17.332Z,16.90
2022-11-22T13:41:54.044Z,16.90
2022-11-22T13:44:27.860Z,16.90
2022-11-22T13:47:24.769Z,16.80
2022-11-22T13:49:54.023Z,16.90
2022-11-22T13:52:21.279Z,16.90
2022-11-22T13:54:48.432Z,17.00
2022-11-22T13:57:34.623Z,17.10
2022-11-22T14:00:21.749Z,17.10
2022-11-22T14:02:52.382Z,17.20
2022-11-22T14:05:26.027Z,17.20
2022-11-22T14:07:58.501Z,17.30
2022-11-22T14:11:03.933Z,17.30
2022-11-22T14:14:01.222Z,17.10
2022-11-22T14:16:34.359Z,17.00
2022-11-22T14:19:21.501Z,17.00
2022-11-22T14:21:57.678Z,16.90
2022-11-22T14:24:49.794Z,16.90
2022-11-22T14:27:37.413Z,16.80
2022-11-22T14:30:37.858Z,16.70
2022-11-22T14:33:17.829Z,16.70
2022-11-22T14:36:07.227Z,16.70
2022-11-22T14:38:42.892Z,16.70
2022-11-22T14:41:28.455Z,16.70
2022-11-22T14:44:02.430Z,16.70
2022-11-22T14:46:52.815Z,16.70
2022-11-22T14:49:44.253Z,16.70
2022-11-22T14:52:23.781Z,16.70
2022-11-22T14:54:58.300Z,16.60
2022-11-22T14:57:28.003Z,16.60
2022-11-22T15:00:33.848Z,16.60
2022-11-22T15:03:21.625Z,16.60
2022-11-22T15:09:16.475Z,16.50
2022-11-22T15:09:39.408Z,16.40
2022-11-22T15:12:20.661Z,16.30
2022-11-22T15:59:44.373Z,15.90
2022-11-22T16:02:20.432Z,15.90
2022-11-22T16:06:06.046Z,15.90
2022-11-22T16:07:53.473Z,15.90
2022-11-22T16:10:26.267Z,15.90
2022-11-22T16:12:53.980Z,15.90
2022-11-22T16:15:36.336Z,15.90
2022-11-22T16:18:38.920Z,15.90
2022-11-22T16:21:12.004Z,15.90
2022-11-22T16:23:41.075Z,15.90
2022-11-22T16:26:31.276Z,15.90
2022-11-22T16:29:39.325Z,16.00
2022-11-22T16:32:12.118Z,16.00
2022-11-22T16:34:43.355Z,16.10
2022-11-22T16:37:37.503Z,16.00
2022-11-22T16:40:06.643Z,16.00
2022-11-22T16:42:35.801Z,16.00
2022-11-22T16:45:07.097Z,16.00
2022-11-22T16:47:34.401Z,15.90
2022-11-22T16:50:01.907Z,15.90
2022-11-22T16:52:29.171Z,15.90
2022-11-22T16:54:57.912Z,15.90
2022-11-22T16:57:25.061Z,15.80
2022-11-22T16:59:52.157Z,15.70
2022-11-22T17:02:19.574Z,15.60
2022-11-22T17:04:47.806Z,15.50
2022-11-22T17:07:16.151Z,15.30
2022-11-22T17:09:43.295Z,15.20
2022-11-22T17:12:19.778Z,15.10
2022-11-22T17:14:48.736Z,15.00
2022-11-22T17:17:15.848Z,14.90
2022-11-22T17:19:53.046Z,14.90
2022-11-22T17:22:22.315Z,14.80
2022-11-22T17:24:49.474Z,14.80
2022-11-22T17:27:16.768Z,14.70
2022-11-22T17:29:51.461Z,14.70
2022-11-22T17:32:19.135Z,14.60
2022-11-22T17:34:46.478Z,14.60
2022-11-22T17:37:13.936Z,14.60
2022-11-22T17:39:41.500Z,14.50
2022-11-22T17:42:08.784Z,14.50
2022-11-22T17:44:36.090Z,14.50
2022-11-22T17:47:03.574Z,14.50
2022-11-22T17:49:31.312Z,14.40
2022-11-22T17:51:58.609Z,14.50
2022-11-22T17:54:25.828Z,14.60
2022-11-22T17:56:53.062Z,14.60
2022-11-22T17:59:20.297Z,14.60
2022-11-22T18:01:47.419Z,14.60
2022-11-22T18:04:17.615Z,14.60
2022-11-22T18:06:44.954Z,14.60
2022-11-22T18:09:12.192Z,14.60
2022-11-22T18:11:39.310Z,14.60
2022-11-22T18:14:06.552Z,14.60
2022-11-22T18:16:33.728Z,14.60
2022-11-22T18:19:01.107Z,14.50
2022-11-22T18:21:30.527Z,14.50
2022-11-22T18:23:58.896Z,14.50
2022-11-22T18:26:43.134Z,14.50
2022-11-22T18:32:02.623Z,14.50
2022-11-22T18:34:30.733Z,14.50
2022-11-22T18:37:03.485Z,14.50
2022-11-22T18:39:37.656Z,14.30
2022-11-22T18:42:16.428Z,14.10
2022-11-22T18:44:43.832Z,13.90
2022-11-22T18:47:11.115Z,13.80
2022-11-22T18:49:38.469Z,13.70
2022-11-22T18:52:06.327Z,13.70
2022-11-22T18:54:34.182Z,13.60
2022-11-22T18:57:01.630Z,13.60
2022-11-22T18:59:28.954Z,13.60
2022-11-22T19:01:56.269Z,13.60
2022-11-22T19:04:23.446Z,13.60
2022-11-22T19:06:51.467Z,13.60
2022-11-22T19:09:18.878Z,13.60
2022-11-22T19:11:49.513Z,13.70
2022-11-22T19:14:16.964Z,13.70
2022-11-22T19:16:44.101Z,13.60
2022-11-22T19:19:12.504Z,13.60
2022-11-22T19:21:40.329Z,13.60
2022-11-22T19:24:07.757Z,13.60
2022-11-22T19:26:35.039Z,13.60
2022-11-22T19:29:02.945Z,13.70
2022-11-22T19:31:31.639Z,13.60
2022-11-22T19:34:03.366Z,13.60
2022-11-22T19:36:33.697Z,13.60
2022-11-22T19:39:04.766Z,13.50
2022-11-22T19:41:32.742Z,13.50
2022-11-22T19:44:00.714Z,13.50
2022-11-22T19:46:30.070Z,13.40
2022-11-22T19:48:59.052Z,13.50
2022-11-22T19:51:28.392Z,13.50
2022-11-22T19:54:03.377Z,13.50
2022-11-22T19:56:36.660Z,13.50
2022-11-22T19:59:08.739Z,13.40
2022-11-22T20:01:36.340Z,13.40
2022-11-22T20:04:06.121Z,13.40
2022-11-22T20:06:37.737Z,13.40
2022-11-22T20:09:09.833Z,13.40
2022-11-22T20:11:38.580Z,13.40
2022-11-22T20:14:06.158Z,13.40
2022-11-22T20:16:34.259Z,13.40
2022-11-22T20:19:05.333Z,13.50
2022-11-22T20:21:36.034Z,13.60
2022-11-22T20:24:04.681Z,13.70
2022-11-22T20:26:32.968Z,13.80
2022-11-22T20:29:02.883Z,13.80
2022-11-22T20:31:31.844Z,13.90
2022-11-22T20:34:00.518Z,13.90
2022-11-22T20:36:29.969Z,14.00
2022-11-22T20:38:58.094Z,14.00
2022-11-22T20:41:28.560Z,14.00
2022-11-22T20:43:56.233Z,14.00
2022-11-22T20:46:25.777Z,13.90
2022-11-22T20:48:54.434Z,14.00
2022-11-22T20:51:24.437Z,13.90
2022-11-22T20:53:52.426Z,13.90
2022-11-22T20:56:20.234Z,13.90
2022-11-22T20:58:48.023Z,13.80
2022-11-22T21:01:17.588Z,13.80
2022-11-22T21:03:45.343Z,13.70
2022-11-22T21:06:13.813Z,13.70
2022-11-22T21:08:41.738Z,13.60
2022-11-22T21:11:16.149Z,13.60
2022-11-22T21:13:44.977Z,13.60
2022-11-22T21:16:25.194Z,13.60
2022-11-22T21:18:57.747Z,13.60
2022-11-22T21:21:25.976Z,13.60
2022-11-22T21:23:57.422Z,13.60
2022-11-22T21:26:26.043Z,13.60
2022-11-22T21:28:53.808Z,13.60
2022-11-22T21:31:22.188Z,13.60
2022-11-22T21:33:50.293Z,13.50
2022-11-22T21:36:17.985Z,13.50
2022-11-22T21:38:45.526Z,13.40
2022-11-22T21:44:11.083Z,13.30
2022-11-22T21:46:38.651Z,13.30
2022-11-22T21:49:05.994Z,13.30
2022-11-22T21:51:33.359Z,13.40
2022-11-22T21:54:01.904Z,13.40
2022-11-22T21:56:29.946Z,13.40
2022-11-22T21:58:57.609Z,13.40
2022-11-22T22:01:25.507Z,13.30
2022-11-22T22:03:53.139Z,13.20
2022-11-22T22:06:21.029Z,13.20
2022-11-22T22:08:48.460Z,13.20
2022-11-22T22:11:15.731Z,13.20
2022-11-22T22:13:43.095Z,13.30
2022-11-22T22:16:19.116Z,13.30
2022-11-22T22:18:47.442Z,13.30
2022-11-22T22:21:16.563Z,13.40
2022-11-22T22:23:44.920Z,13.40
2022-11-22T22:26:16.657Z,13.40
2022-11-22T22:28:45.399Z,13.40
2022-11-22T22:31:21.977Z,13.40
2022-11-22T22:33:57.189Z,13.40
2022-11-22T22:36:26.200Z,13.40
2022-11-22T22:38:55.068Z,13.30
2022-11-22T22:41:24.788Z,13.30
2022-11-22T22:43:52.017Z,13.30
2022-11-22T22:46:21.848Z,13.30
2022-11-22T22:48:50.221Z,13.30
2022-11-22T22:51:29.040Z,13.20
2022-11-22T22:54:00.904Z,13.20
2022-11-22T22:56:30.070Z,13.30
2022-11-22T22:58:58.995Z,13.30
2022-11-22T23:01:28.599Z,13.30
2022-11-22T23:04:00.313Z,13.30
2022-11-22T23:06:29.905Z,13.40
2022-11-22T23:08:57.595Z,13.40
2022-11-22T23:11:48.269Z,13.40
2022-11-22T23:14:18.341Z,13.50
2022-11-22T23:16:45.529Z,13.50
2022-11-22T23:19:13.303Z,13.50
2022-11-22T23:21:40.917Z,13.60
2022-11-22T23:24:08.902Z,13.60
2022-11-22T23:26:36.966Z,13.60
2022-11-22T23:29:04.950Z,13.70
2022-11-22T23:31:32.630Z,13.70
2022-11-22T23:34:01.626Z,13.80
2022-11-22T23:36:40.166Z,13.80
2022-11-22T23:39:08.824Z,13.90
2022-11-22T23:41:36.147Z,13.80
2022-11-22T23:44:05.073Z,13.80
2022-11-22T23:46:32.746Z,13.70
2022-11-22T23:49:04.175Z,13.50
2022-11-22T23:51:33.119Z,13.40
2022-11-22T23:54:02.766Z,13.20
2022-11-22T23:56:31.629Z,12.90
2022-11-22T23:59:00.302Z,12.60
